sensor_id;sensor_type;location;lat;lon;timestamp;pressure;altitude;pressure_sealevel;temperature;humidity
31096;BME280;17749;51.962;8.560;2024-03-08T06:02:55;100248.63;;;1.06;100.00
31096;BME280;17749;51.962;8.560;2024-03-08T06:05:22;100246.00;;;1.09;100.00
31096;BME280;17749;51.962;8.560;2024-03-08T06:07:51;100239.88;;;1.12;100.00
31096;BME280;17749;51.962;8.560;2024-03-08T06:10:19;100242.50;;;1.08;100.00
31096;BME280;17749;51.962;8.560;2024-03-08T06:12:46;100232.91;;;1.11;100.00
31096;BME280;17749;51.962;8.560;2024-03-08T06:15:13;100239.91;;;1.13;100.00
31096;BME280;17749;51.962;8.560;2024-03-08T06:17:42;100228.53;;;1.16;100.00
31096;BME280;17749;51.962;8.560;2024-03-08T06:20:10;100236.38;;;1.14;100.00
31096;BME280;17749;51.962;8.560;2024-03-08T06:22:37;100233.78;;;1.16;100.00
31096;BME280;17749;51.962;8.560;2024-03-08T06:25:12;100237.28;;;1.16;100.00
31096;BME280;17749;51.962;8.560;2024-03-08T06:27:41;100239.03;;;1.19;100.00
31096;BME280;17749;51.962;8.560;2024-03-08T06:30:09;100239.00;;;1.22;100.00
31096;BME280;17749;51.962;8.560;2024-03-08T06:32:37;100236.41;;;1.26;100.00
31096;BME280;17749;51.962;8.560;2024-03-08T06:35:04;100240.78;;;1.29;100.00
31096;BME280;17749;51.962;8.560;2024-03-08T06:37:33;100232.88;;;1.27;100.00
31096;BME280;17749;51.962;8.560;2024-03-08T06:40:00;100232.88;;;1.27;100.00
31096;BME280;17749;51.962;8.560;2024-03-08T06:42:29;100237.25;;;1.33;100.00
31096;BME280;17749;51.962;8.560;2024-03-08T06:45:01;100234.66;;;1.35;100.00
31096;BME280;17749;51.962;8.560;2024-03-08T06:47:31;100232.91;;;1.40;100.00
31096;BME280;17749;51.962;8.560;2024-03-08T06:49:58;100232.88;;;1.46;100.00
31096;BME280;17749;51.962;8.560;2024-03-08T06:52:25;100231.13;;;1.54;100.00
31096;BME280;17749;51.962;8.560;2024-03-08T06:54:51;100236.38;;;1.63;100.00
31096;BME280;17749;51.962;8.560;2024-03-08T06:57:18;100240.72;;;1.72;100.00
31096;BME280;17749;51.962;8.560;2024-03-08T06:59:48;100239.84;;;1.84;100.00
31096;BME280;17749;51.962;8.560;2024-03-08T07:02:15;100231.03;;;2.00;100.00
31096;BME280;17749;51.962;8.560;2024-03-08T07:04:42;100229.22;;;2.17;100.00
31096;BME280;17749;51.962;8.560;2024-03-08T07:07:08;100230.91;;;2.34;100.00
31096;BME280;17749;51.962;8.560;2024-03-08T07:09:36;100230.84;;;2.40;100.00
31096;BME280;17749;51.962;8.560;2024-03-08T07:12:03;100232.59;;;2.44;100.00
31096;BME280;17749;51.962;8.560;2024-03-08T07:14:30;100229.84;;;2.66;100.00
31096;BME280;17749;51.962;8.560;2024-03-08T07:16:57;100237.69;;;2.78;100.00
31096;BME280;17749;51.962;8.560;2024-03-08T07:19:26;100236.72;;;2.90;100.00
31096;BME280;17749;51.962;8.560;2024-03-08T07:21:53;100237.63;;;2.84;100.00
31096;BME280;17749;51.962;8.560;2024-03-08T07:24:25;100231.44;;;2.88;100.00
31096;BME280;17749;51.962;8.560;2024-03-08T07:27:16;100234.06;;;2.94;100.00
31096;BME280;17749;51.962;8.560;2024-03-08T07:29:44;100222.59;;;3.04;100.00
31096;BME280;17749;51.962;8.560;2024-03-08T07:32:11;100223.38;;;3.13;100.00
31096;BME280;17749;51.962;8.560;2024-03-08T07:34:38;100226.81;;;3.24;100.00
31096;BME280;17749;51.962;8.560;2024-03-08T07:37:06;100229.34;;;3.35;100.00
31096;BME280;17749;51.962;8.560;2024-03-08T07:39:38;100222.38;;;3.29;100.00
31096;BME280;17749;51.962;8.560;2024-03-08T07:42:05;100225.84;;;3.34;100.00
31096;BME280;17749;51.962;8.560;2024-03-08T07:44:32;100224.94;;;3.38;100.00
31096;BME280;17749;51.962;8.560;2024-03-08T07:46:59;100217.91;;;3.37;100.00
31096;BME280;17749;51.962;8.560;2024-03-08T07:49:26;100219.69;;;3.38;100.00
31096;BME280;17749;51.962;8.560;2024-03-08T07:51:53;100212.69;;;3.34;100.00
31096;BME280;17749;51.962;8.560;2024-03-08T07:54:20;100213.59;;;3.28;100.00
31096;BME280;17749;51.962;8.560;2024-03-08T07:56:48;100211.88;;;3.27;100.00
31096;BME280;17749;51.962;8.560;2024-03-08T07:59:15;100212.75;;;3.28;100.00
31096;BME280;17749;51.962;8.560;2024-03-08T08:01:41;100214.47;;;3.29;100.00
31096;BME280;17749;51.962;8.560;2024-03-08T08:04:08;100211.78;;;3.37;100.00
31096;BME280;17749;51.962;8.560;2024-03-08T08:06:39;100210.88;;;3.38;100.00
31096;BME280;17749;51.962;8.560;2024-03-08T08:09:07;100209.13;;;3.41;100.00
31096;BME280;17749;51.962;8.560;2024-03-08T08:11:55;100195.03;;;3.42;100.00
31096;BME280;17749;51.962;8.560;2024-03-08T08:14:22;100209.00;;;3.50;100.00
31096;BME280;17749;51.962;8.560;2024-03-08T08:16:50;100204.53;;;3.59;100.00
31096;BME280;17749;51.962;8.560;2024-03-08T08:19:19;100203.63;;;3.63;100.00
31096;BME280;17749;51.962;8.560;2024-03-08T08:21:46;100194.03;;;3.56;100.00
31096;BME280;17749;51.962;8.560;2024-03-08T08:24:13;100194.81;;;3.64;100.00
31096;BME280;17749;51.962;8.560;2024-03-08T08:26:40;100186.84;;;3.73;100.00
31096;BME280;17749;51.962;8.560;2024-03-08T08:29:07;100191.16;;;3.80;100.00
31096;BME280;17749;51.962;8.560;2024-03-08T08:31:34;100184.13;;;3.81;100.00
31096;BME280;17749;51.962;8.560;2024-03-08T08:34:00;100190.13;;;3.92;100.00
31096;BME280;17749;51.962;8.560;2024-03-08T08:36:29;100185.69;;;3.99;100.00
31096;BME280;17749;51.962;8.560;2024-03-08T08:38:57;100187.50;;;3.93;100.00
31096;BME280;17749;51.962;8.560;2024-03-08T08:41:25;100185.69;;;3.95;100.00
31096;BME280;17749;51.962;8.560;2024-03-08T08:43:53;100186.47;;;4.05;100.00
31096;BME280;17749;51.962;8.560;2024-03-08T08:46:34;100177.59;;;4.11;100.00
31096;BME280;17749;51.962;8.560;2024-03-08T08:49:07;100173.16;;;4.16;100.00
31096;BME280;17749;51.962;8.560;2024-03-08T08:51:37;100169.50;;;4.26;100.00
31096;BME280;17749;51.962;8.560;2024-03-08T08:54:04;100169.34;;;4.38;100.00
31096;BME280;17749;51.962;8.560;2024-03-08T08:56:37;100176.28;;;4.46;100.00
31096;BME280;17749;51.962;8.560;2024-03-08T08:59:05;100166.50;;;4.54;100.00
31096;BME280;17749;51.962;8.560;2024-03-08T09:01:32;100159.28;;;4.67;100.00
31096;BME280;17749;51.962;8.560;2024-03-08T09:03:59;100172.34;;;4.74;100.00
31096;BME280;17749;51.962;8.560;2024-03-08T09:06:26;100167.72;;;4.87;100.00
31096;BME280;17749;51.962;8.560;2024-03-08T09:08:53;100163.25;;;4.94;100.00
31096;BME280;17749;51.962;8.560;2024-03-08T09:11:19;100160.63;;;4.92;100.00
31096;BME280;17749;51.962;8.560;2024-03-08T09:13:46;100156.25;;;4.90;100.00
31096;BME280;17749;51.962;8.560;2024-03-08T09:16:13;100156.00;;;5.05;100.00
31096;BME280;17749;51.962;8.560;2024-03-08T09:18:41;100149.81;;;5.09;100.00
31096;BME280;17749;51.962;8.560;2024-03-08T09:21:08;100144.47;;;5.11;100.00
31096;BME280;17749;51.962;8.560;2024-03-08T09:23:39;100144.53;;;5.09;100.00
31096;BME280;17749;51.962;8.560;2024-03-08T09:26:07;100145.19;;;5.20;100.00
31096;BME280;17749;51.962;8.560;2024-03-08T09:28:48;100136.94;;;5.39;100.00
31096;BME280;17749;51.962;8.560;2024-03-08T09:31:16;100129.88;;;5.41;100.00
31096;BME280;17749;51.962;8.560;2024-03-08T09:33:42;100132.31;;;5.52;100.00
31096;BME280;17749;51.962;8.560;2024-03-08T09:36:09;100122.16;;;5.28;100.00
31096;BME280;17749;51.962;8.560;2024-03-08T09:38:36;100115.59;;;5.51;100.00
31096;BME280;17749;51.962;8.560;2024-03-08T09:41:03;100118.66;;;5.75;100.00
31096;BME280;17749;51.962;8.560;2024-03-08T09:43:33;100108.72;;;5.87;100.00
31096;BME280;17749;51.962;8.560;2024-03-08T09:46:00;100091.13;;;5.85;100.00
31096;BME280;17749;51.962;8.560;2024-03-08T09:48:51;100087.66;;;5.83;100.00
31096;BME280;17749;51.962;8.560;2024-03-08T09:51:28;100083.91;;;5.93;100.00
31096;BME280;17749;51.962;8.560;2024-03-08T09:53:56;100076.56;;;6.07;100.00
31096;BME280;17749;51.962;8.560;2024-03-08T09:56:25;100076.34;;;6.18;100.00
31096;BME280;17749;51.962;8.560;2024-03-08T09:58:55;100074.88;;;6.44;100.00
31096;BME280;17749;51.962;8.560;2024-03-08T10:01:43;100067.44;;;6.59;100.00
31096;BME280;17749;51.962;8.560;2024-03-08T10:04:11;100061.94;;;6.69;100.00
31096;BME280;17749;51.962;8.560;2024-03-08T10:06:39;100059.84;;;6.82;100.00
31096;BME280;17749;51.962;8.560;2024-03-08T10:09:06;100059.19;;;6.72;100.00
31096;BME280;17749;51.962;8.560;2024-03-08T10:11:34;100058.81;;;6.87;100.00
31096;BME280;17749;51.962;8.560;2024-03-08T10:14:01;100046.13;;;7.00;100.00
31096;BME280;17749;51.962;8.560;2024-03-08T10:16:28;100045.84;;;7.11;100.00
31096;BME280;17749;51.962;8.560;2024-03-08T10:18:58;100043.19;;;7.11;100.00
31096;BME280;17749;51.962;8.560;2024-03-08T10:21:26;100037.81;;;7.14;100.00
31096;BME280;17749;51.962;8.560;2024-03-08T10:23:55;100033.91;;;7.27;100.00
31096;BME280;17749;51.962;8.560;2024-03-08T10:26:22;100027.31;;;7.42;100.00
31096;BME280;17749;51.962;8.560;2024-03-08T10:28:51;100019.16;;;7.50;100.00
31096;BME280;17749;51.962;8.560;2024-03-08T10:31:19;100025.72;;;7.36;100.00
31096;BME280;17749;51.962;8.560;2024-03-08T10:33:46;100023.00;;;7.07;100.00
31096;BME280;17749;51.962;8.560;2024-03-08T10:36:14;100022.47;;;7.25;100.00
31096;BME280;17749;51.962;8.560;2024-03-08T10:38:42;100014.31;;;7.33;100.00
31096;BME280;17749;51.962;8.560;2024-03-08T10:41:15;100014.22;;;7.36;100.00
31096;BME280;17749;51.962;8.560;2024-03-08T10:46:50;100015.94;;;7.38;100.00
31096;BME280;17749;51.962;8.560;2024-03-08T10:49:25;100007.81;;;7.44;100.00
31096;BME280;17749;51.962;8.560;2024-03-08T10:51:54;100011.38;;;7.43;100.00
31096;BME280;17749;51.962;8.560;2024-03-08T10:54:23;100005.69;;;7.57;100.00
31096;BME280;17749;51.962;8.560;2024-03-08T10:56:52;99996.78;;;7.60;100.00
31096;BME280;17749;51.962;8.560;2024-03-08T10:59:19;99997.75;;;7.57;100.00
31096;BME280;17749;51.962;8.560;2024-03-08T11:01:47;100002.75;;;7.66;100.00
31096;BME280;17749;51.962;8.560;2024-03-08T11:04:14;99996.84;;;7.57;100.00
31096;BME280;17749;51.962;8.560;2024-03-08T11:06:45;99996.59;;;7.66;100.00
31096;BME280;17749;51.962;8.560;2024-03-08T11:09:31;99991.09;;;7.72;100.00
31096;BME280;17749;51.962;8.560;2024-03-08T11:12:22;99994.38;;;7.80;100.00
31096;BME280;17749;51.962;8.560;2024-03-08T11:14:53;99980.84;;;7.89;100.00
31096;BME280;17749;51.962;8.560;2024-03-08T11:19:58;99974.13;;;7.78;100.00
31096;BME280;17749;51.962;8.560;2024-03-08T11:22:29;99972.91;;;7.89;100.00
31096;BME280;17749;51.962;8.560;2024-03-08T11:25:03;99969.41;;;7.87;100.00
31096;BME280;17749;51.962;8.560;2024-03-08T11:27:38;99953.31;;;7.94;100.00
31096;BME280;17749;51.962;8.560;2024-03-08T11:30:06;99955.44;;;7.82;99.33
31096;BME280;17749;51.962;8.560;2024-03-08T11:32:46;99958.88;;;7.86;99.93
31096;BME280;17749;51.962;8.560;2024-03-08T11:35:19;99953.41;;;7.90;100.00
31096;BME280;17749;51.962;8.560;2024-03-08T11:37:47;99940.88;;;7.96;100.00
31096;BME280;17749;51.962;8.560;2024-03-08T11:40:15;99943.16;;;8.08;100.00
31096;BME280;17749;51.962;8.560;2024-03-08T11:42:48;99942.09;;;8.12;100.00
31096;BME280;17749;51.962;8.560;2024-03-08T11:45:16;99931.44;;;8.15;100.00
31096;BME280;17749;51.962;8.560;2024-03-08T11:47:45;99929.16;;;8.29;100.00
31096;BME280;17749;51.962;8.560;2024-03-08T11:50:16;99921.47;;;8.22;100.00
31096;BME280;17749;51.962;8.560;2024-03-08T11:52:46;99914.06;;;8.31;100.00
31096;BME280;17749;51.962;8.560;2024-03-08T11:55:13;99901.16;;;8.21;100.00
31096;BME280;17749;51.962;8.560;2024-03-08T11:57:41;99907.22;;;8.24;100.00
31096;BME280;17749;51.962;8.560;2024-03-08T12:00:16;99899.16;;;8.27;100.00
31096;BME280;17749;51.962;8.560;2024-03-08T12:03:04;99894.94;;;8.22;100.00
31096;BME280;17749;51.962;8.560;2024-03-08T12:05:32;99896.50;;;8.27;100.00
31096;BME280;17749;51.962;8.560;2024-03-08T12:08:03;99887.13;;;8.17;100.00
31096;BME280;17749;51.962;8.560;2024-03-08T12:10:34;99887.56;;;8.05;100.00
31096;BME280;17749;51.962;8.560;2024-03-08T12:13:02;99882.44;;;7.99;100.00
31096;BME280;17749;51.962;8.560;2024-03-08T12:15:39;99882.34;;;8.02;100.00
31096;BME280;17749;51.962;8.560;2024-03-08T12:18:06;99876.94;;;8.05;100.00
31096;BME280;17749;51.962;8.560;2024-03-08T12:20:34;99869.63;;;8.11;100.00
31096;BME280;17749;51.962;8.560;2024-03-08T12:23:01;99863.44;;;8.12;100.00
31096;BME280;17749;51.962;8.560;2024-03-08T12:25:32;99870.91;;;8.26;100.00
31096;BME280;17749;51.962;8.560;2024-03-08T12:28:10;99850.41;;;8.31;100.00
31096;BME280;17749;51.962;8.560;2024-03-08T12:30:51;99849.56;;;8.29;100.00
31096;BME280;17749;51.962;8.560;2024-03-08T12:33:21;99841.88;;;8.22;100.00
31096;BME280;17749;51.962;8.560;2024-03-08T12:35:53;99832.06;;;8.25;100.00
31096;BME280;17749;51.962;8.560;2024-03-08T12:38:22;99844.00;;;8.37;99.05
31096;BME280;17749;51.962;8.560;2024-03-08T12:40:58;99837.75;;;8.40;97.98
31096;BME280;17749;51.962;8.560;2024-03-08T12:43:26;99837.75;;;8.38;97.25
31096;BME280;17749;51.962;8.560;2024-03-08T12:45:58;99820.97;;;8.39;95.98
31096;BME280;17749;51.962;8.560;2024-03-08T12:48:25;99821.78;;;8.41;95.26
31096;BME280;17749;51.962;8.560;2024-03-08T12:50:52;99813.97;;;8.37;96.29
31096;BME280;17749;51.962;8.560;2024-03-08T12:53:21;99817.34;;;8.42;95.36
31096;BME280;17749;51.962;8.560;2024-03-08T12:55:50;99811.94;;;8.45;95.88
31096;BME280;17749;51.962;8.560;2024-03-08T12:58:17;99806.63;;;8.45;92.40
31096;BME280;17749;51.962;8.560;2024-03-08T13:00:44;99803.97;;;8.45;93.64
31096;BME280;17749;51.962;8.560;2024-03-08T13:03:12;99791.41;;;8.50;93.25
31096;BME280;17749;51.962;8.560;2024-03-08T13:05:39;99794.75;;;8.55;97.62
31096;BME280;17749;51.962;8.560;2024-03-08T13:08:07;99798.16;;;8.59;96.44
31096;BME280;17749;51.962;8.560;2024-03-08T13:10:40;99782.47;;;8.52;96.88
31096;BME280;17749;51.962;8.560;2024-03-08T13:13:11;99789.16;;;8.38;99.23
31096;BME280;17749;51.962;8.560;2024-03-08T13:15:40;99790.41;;;8.27;97.70
31096;BME280;17749;51.962;8.560;2024-03-08T13:18:07;99775.19;;;8.32;97.42
31096;BME280;17749;51.962;8.560;2024-03-08T13:20:36;99773.47;;;8.31;96.72
31096;BME280;17749;51.962;8.560;2024-03-08T13:23:13;99761.00;;;8.33;97.28
31096;BME280;17749;51.962;8.560;2024-03-08T13:25:40;99754.88;;;8.31;97.87
31096;BME280;17749;51.962;8.560;2024-03-08T13:28:08;99747.78;;;8.32;99.40
31096;BME280;17749;51.962;8.560;2024-03-08T13:30:36;99751.38;;;8.31;100.00
31096;BME280;17749;51.962;8.560;2024-03-08T13:33:03;99749.75;;;8.27;99.34
31096;BME280;17749;51.962;8.560;2024-03-08T13:35:32;99756.69;;;8.31;99.36
31096;BME280;17749;51.962;8.560;2024-03-08T13:37:59;99750.47;;;8.30;98.02
31096;BME280;17749;51.962;8.560;2024-03-08T13:40:29;99758.50;;;8.29;98.20
31096;BME280;17749;51.962;8.560;2024-03-08T13:42:58;99734.81;;;8.24;98.72
31096;BME280;17749;51.962;8.560;2024-03-08T13:45:27;99745.84;;;8.37;99.88
31096;BME280;17749;51.962;8.560;2024-03-08T13:47:55;99735.66;;;8.50;99.85
31096;BME280;17749;51.962;8.560;2024-03-08T13:50:22;99737.38;;;8.51;98.80
31096;BME280;17749;51.962;8.560;2024-03-08T13:52:50;99729.88;;;8.39;98.31
31096;BME280;17749;51.962;8.560;2024-03-08T13:55:23;99718.34;;;8.40;100.00
31096;BME280;17749;51.962;8.560;2024-03-08T13:57:53;99713.03;;;8.40;99.43
31096;BME280;17749;51.962;8.560;2024-03-08T14:00:20;99714.56;;;8.47;100.00
31096;BME280;17749;51.962;8.560;2024-03-08T14:02:52;99704.63;;;8.52;100.00
31096;BME280;17749;51.962;8.560;2024-03-08T14:05:21;99707.16;;;8.55;100.00
31096;BME280;17749;51.962;8.560;2024-03-08T14:07:49;99692.91;;;8.58;100.00
31096;BME280;17749;51.962;8.560;2024-03-08T14:10:16;99690.38;;;8.54;100.00
31096;BME280;17749;51.962;8.560;2024-03-08T14:12:47;99678.41;;;8.66;100.00
31096;BME280;17749;51.962;8.560;2024-03-08T14:15:16;99679.91;;;8.73;100.00
31096;BME280;17749;51.962;8.560;2024-03-08T14:17:43;99680.41;;;8.83;100.00
31096;BME280;17749;51.962;8.560;2024-03-08T14:20:13;99683.00;;;8.85;100.00
31096;BME280;17749;51.962;8.560;2024-03-08T14:22:41;99667.31;;;8.78;99.57
31096;BME280;17749;51.962;8.560;2024-03-08T14:25:08;99674.03;;;8.65;100.00
31096;BME280;17749;51.962;8.560;2024-03-08T14:27:45;99664.84;;;8.74;100.00
31096;BME280;17749;51.962;8.560;2024-03-08T14:30:13;99668.00;;;8.84;100.00
31096;BME280;17749;51.962;8.560;2024-03-08T14:32:40;99666.72;;;8.94;95.97
31096;BME280;17749;51.962;8.560;2024-03-08T14:35:08;99659.06;;;8.86;91.72
31096;BME280;17749;51.962;8.560;2024-03-08T14:37:38;99667.03;;;8.86;92.80
31096;BME280;17749;51.962;8.560;2024-03-08T14:40:05;99665.22;;;8.87;93.15
31096;BME280;17749;51.962;8.560;2024-03-08T14:42:32;99663.50;;;8.86;91.86
31096;BME280;17749;51.962;8.560;2024-03-08T14:44:59;99650.44;;;8.80;89.86
31096;BME280;17749;51.962;8.560;2024-03-08T14:47:27;99641.63;;;8.79;90.84
31096;BME280;17749;51.962;8.560;2024-03-08T14:49:55;99638.81;;;8.84;91.53
31096;BME280;17749;51.962;8.560;2024-03-08T14:52:22;99641.59;;;8.81;91.82
31096;BME280;17749;51.962;8.560;2024-03-08T14:54:56;99636.44;;;8.76;91.92
31096;BME280;17749;51.962;8.560;2024-03-08T14:57:23;99625.09;;;8.72;93.73
31096;BME280;17749;51.962;8.560;2024-03-08T14:59:50;99622.44;;;8.72;92.91
31096;BME280;17749;51.962;8.560;2024-03-08T15:02:17;99618.16;;;8.68;92.33
31096;BME280;17749;51.962;8.560;2024-03-08T15:04:47;99632.25;;;8.70;94.12
31096;BME280;17749;51.962;8.560;2024-03-08T15:07:24;99618.16;;;8.68;92.31
31096;BME280;17749;51.962;8.560;2024-03-08T15:09:57;99617.66;;;8.59;92.26
31096;BME280;17749;51.962;8.560;2024-03-08T15:12:24;99614.97;;;8.60;91.81
31096;BME280;17749;51.962;8.560;2024-03-08T15:14:53;99613.13;;;8.62;92.60
31096;BME280;17749;51.962;8.560;2024-03-08T15:17:23;99613.13;;;8.62;93.17
31096;BME280;17749;51.962;8.560;2024-03-08T15:19:51;99609.41;;;8.66;94.31
31096;BME280;17749;51.962;8.560;2024-03-08T15:22:19;99596.94;;;8.68;93.46
31096;BME280;17749;51.962;8.560;2024-03-08T15:24:46;99602.38;;;8.65;92.56
31096;BME280;17749;51.962;8.560;2024-03-08T15:27:13;99599.16;;;8.57;93.33
31096;BME280;17749;51.962;8.560;2024-03-08T15:29:40;99600.88;;;8.58;93.08
31096;BME280;17749;51.962;8.560;2024-03-08T15:32:07;99596.56;;;8.55;93.03
31096;BME280;17749;51.962;8.560;2024-03-08T15:34:36;99588.66;;;8.54;93.75
31096;BME280;17749;51.962;8.560;2024-03-08T15:37:05;99591.25;;;8.55;93.58
31096;BME280;17749;51.962;8.560;2024-03-08T15:39:33;99593.06;;;8.55;94.65
31096;BME280;17749;51.962;8.560;2024-03-08T15:42:01;99584.44;;;8.48;93.63
31096;BME280;17749;51.962;8.560;2024-03-08T15:44:28;99589.66;;;8.51;94.36
31096;BME280;17749;51.962;8.560;2024-03-08T15:46:56;99579.09;;;8.50;94.88
31096;BME280;17749;51.962;8.560;2024-03-08T15:49:23;99580.81;;;8.51;94.67
31096;BME280;17749;51.962;8.560;2024-03-08T15:51:53;99588.78;;;8.51;95.34
31096;BME280;17749;51.962;8.560;2024-03-08T15:54:20;99579.03;;;8.51;95.42
31096;BME280;17749;51.962;8.560;2024-03-08T15:56:48;99571.13;;;8.50;94.40
31096;BME280;17749;51.962;8.560;2024-03-08T15:59:16;99576.31;;;8.53;95.65
31096;BME280;17749;51.962;8.560;2024-03-08T16:01:43;99576.44;;;8.50;94.95
31096;BME280;17749;51.962;8.560;2024-03-08T16:04:18;99575.63;;;8.48;97.41
31096;BME280;17749;51.962;8.560;2024-03-08T16:06:47;99574.81;;;8.46;96.83
31096;BME280;17749;51.962;8.560;2024-03-08T16:09:14;99570.63;;;8.40;97.19
31096;BME280;17749;51.962;8.560;2024-03-08T16:11:42;99565.41;;;8.37;97.44
31096;BME280;17749;51.962;8.560;2024-03-08T16:14:11;99565.66;;;8.31;97.93
31096;BME280;17749;51.962;8.560;2024-03-08T16:16:38;99563.16;;;8.28;98.61
31096;BME280;17749;51.962;8.560;2024-03-08T16:19:06;99559.69;;;8.26;98.68
31096;BME280;17749;51.962;8.560;2024-03-08T16:21:34;99558.91;;;8.22;99.64
31096;BME280;17749;51.962;8.560;2024-03-08T16:24:02;99558.19;;;8.19;100.00
31096;BME280;17749;51.962;8.560;2024-03-08T16:26:30;99560.97;;;8.16;100.00
31096;BME280;17749;51.962;8.560;2024-03-08T16:29:02;99549.59;;;8.12;100.00
31096;BME280;17749;51.962;8.560;2024-03-08T16:31:31;99555.78;;;8.12;100.00
31096;BME280;17749;51.962;8.560;2024-03-08T16:33:58;99556.13;;;8.03;100.00
31096;BME280;17749;51.962;8.560;2024-03-08T16:36:25;99545.63;;;8.00;100.00
31096;BME280;17749;51.962;8.560;2024-03-08T16:38:53;99552.78;;;7.98;100.00
31096;BME280;17749;51.962;8.560;2024-03-08T16:41:20;99546.88;;;7.92;100.00
31096;BME280;17749;51.962;8.560;2024-03-08T16:43:48;99547.06;;;7.85;100.00
31096;BME280;17749;51.962;8.560;2024-03-08T16:46:16;99544.53;;;7.82;100.00
31096;BME280;17749;51.962;8.560;2024-03-08T16:48:43;99542.13;;;7.76;100.00
31096;BME280;17749;51.962;8.560;2024-03-08T16:51:10;99542.34;;;7.70;100.00
31096;BME280;17749;51.962;8.560;2024-03-08T16:53:38;99543.28;;;7.69;100.00
31096;BME280;17749;51.962;8.560;2024-03-08T16:56:08;99533.78;;;7.63;100.00
31096;BME280;17749;51.962;8.560;2024-03-08T16:58:40;99534.72;;;7.62;100.00
31096;BME280;17749;51.962;8.560;2024-03-08T17:01:11;99531.25;;;7.60;100.00
31096;BME280;17749;51.962;8.560;2024-03-08T17:03:38;99528.75;;;7.56;100.00
31096;BME280;17749;51.962;8.560;2024-03-08T17:06:22;99523.69;;;7.50;100.00
31096;BME280;17749;51.962;8.560;2024-03-08T17:08:50;99531.06;;;7.41;100.00
31096;BME280;17749;51.962;8.560;2024-03-08T17:11:18;99537.41;;;7.36;100.00
31096;BME280;17749;51.962;8.560;2024-03-08T17:13:48;99527.78;;;7.33;100.00
31096;BME280;17749;51.962;8.560;2024-03-08T17:16:15;99531.38;;;7.32;100.00
31096;BME280;17749;51.962;8.560;2024-03-08T17:18:42;99538.63;;;7.27;100.00
31096;BME280;17749;51.962;8.560;2024-03-08T17:21:11;99534.34;;;7.23;100.00
31096;BME280;17749;51.962;8.560;2024-03-08T17:23:40;99533.66;;;7.18;100.00
31096;BME280;17749;51.962;8.560;2024-03-08T17:26:07;99527.56;;;7.16;100.00
31096;BME280;17749;51.962;8.560;2024-03-08T17:28:35;99528.56;;;7.12;100.00
31096;BME280;17749;51.962;8.560;2024-03-08T17:31:05;99527.81;;;7.08;100.00
31096;BME280;17749;51.962;8.560;2024-03-08T17:33:34;99525.19;;;7.08;100.00
31096;BME280;17749;51.962;8.560;2024-03-08T17:36:02;99526.25;;;7.02;100.00
31096;BME280;17749;51.962;8.560;2024-03-08T17:38:33;99534.09;;;7.06;100.00
31096;BME280;17749;51.962;8.560;2024-03-08T17:41:00;99535.88;;;7.05;100.00
31096;BME280;17749;51.962;8.560;2024-03-08T17:43:27;99532.56;;;6.98;100.00
31096;BME280;17749;51.962;8.560;2024-03-08T17:45:55;99528.31;;;6.94;100.00
31096;BME280;17749;51.962;8.560;2024-03-08T17:48:22;99534.50;;;6.93;100.00
31096;BME280;17749;51.962;8.560;2024-03-08T17:50:49;99530.25;;;6.89;100.00
31096;BME280;17749;51.962;8.560;2024-03-08T17:53:17;99531.25;;;6.85;100.00
31096;BME280;17749;51.962;8.560;2024-03-08T17:55:46;99526.19;;;6.79;100.00
31096;BME280;17749;51.962;8.560;2024-03-08T17:58:14;99527.91;;;6.80;100.00
31096;BME280;17749;51.962;8.560;2024-03-08T18:00:42;99524.28;;;6.83;100.00
31096;BME280;17749;51.962;8.560;2024-03-08T18:03:10;99523.47;;;6.80;100.00
31096;BME280;17749;51.962;8.560;2024-03-08T18:05:40;99517.31;;;6.80;100.00
31096;BME280;17749;51.962;8.560;2024-03-08T18:08:11;99515.50;;;6.82;100.00
31096;BME280;17749;51.962;8.560;2024-03-08T18:10:38;99515.59;;;6.79;100.00
31096;BME280;17749;51.962;8.560;2024-03-08T18:13:07;99515.63;;;6.77;100.00
31096;BME280;17749;51.962;8.560;2024-03-08T18:15:43;99515.78;;;6.73;100.00
31096;BME280;17749;51.962;8.560;2024-03-08T18:18:12;99511.56;;;6.67;100.00
31096;BME280;17749;51.962;8.560;2024-03-08T18:20:40;99527.56;;;6.64;100.00
31096;BME280;17749;51.962;8.560;2024-03-08T18:23:18;99513.50;;;6.62;100.00
31096;BME280;17749;51.962;8.560;2024-03-08T18:25:49;99511.00;;;6.57;100.00
31096;BME280;17749;51.962;8.560;2024-03-08T18:28:17;99514.56;;;6.56;100.00
31096;BME280;17749;51.962;8.560;2024-03-08T18:30:46;99511.78;;;6.61;100.00
31096;BME280;17749;51.962;8.560;2024-03-08T18:33:15;99504.81;;;6.58;100.00
31096;BME280;17749;51.962;8.560;2024-03-08T18:35:42;99495.94;;;6.59;100.00
31096;BME280;17749;51.962;8.560;2024-03-08T18:38:11;99494.97;;;6.62;100.00
31096;BME280;17749;51.962;8.560;2024-03-08T18:40:39;99500.34;;;6.61;100.00
31096;BME280;17749;51.962;8.560;2024-03-08T18:43:12;99499.44;;;6.60;100.00
31096;BME280;17749;51.962;8.560;2024-03-08T18:45:40;99508.47;;;6.54;100.00
31096;BME280;17749;51.962;8.560;2024-03-08T18:48:08;99503.13;;;6.56;100.00
31096;BME280;17749;51.962;8.560;2024-03-08T18:50:38;99503.34;;;6.50;100.00
31096;BME280;17749;51.962;8.560;2024-03-08T18:53:05;99507.75;;;6.49;100.00
31096;BME280;17749;51.962;8.560;2024-03-08T18:55:34;99503.50;;;6.45;100.00
31096;BME280;17749;51.962;8.560;2024-03-08T18:58:01;99498.34;;;6.41;100.00
31096;BME280;17749;51.962;8.560;2024-03-08T19:00:29;99492.31;;;6.37;100.00
31096;BME280;17749;51.962;8.560;2024-03-08T19:02:58;99494.13;;;6.35;100.00
31096;BME280;17749;51.962;8.560;2024-03-08T19:05:29;99492.38;;;6.34;100.00
31096;BME280;17749;51.962;8.560;2024-03-08T19:08:08;99482.00;;;6.28;100.00
31096;BME280;17749;51.962;8.560;2024-03-08T19:10:36;99483.75;;;6.29;100.00
31096;BME280;17749;51.962;8.560;2024-03-08T19:13:05;99487.41;;;6.25;100.00
31096;BME280;17749;51.962;8.560;2024-03-08T19:15:32;99483.81;;;6.26;100.00
31096;BME280;17749;51.962;8.560;2024-03-08T19:18:01;99479.56;;;6.22;100.00